Time;durP1;ratioP1;P1;durP2;ratioP2;P2;SDS_P1;SDS_P2;PMS_P1;PMS_P2;Temp;Humidity;BMP_temperature;BMP_pressure;BME280_temperature;BME280_humidity;BME280_pressure;Samples;Min_cycle;Max_cycle;Signal;HPM_P1;HPM_P2
2022/01/07 00:01:22;;;;;;;8.95;4.38;;;3.80;99.90;;;;;;5071491;28;20497;-71
2022/01/07 00:03:51;;;;;;;13.50;4.43;;;3.80;99.90;;;;;;5072016;28;20064;-71
2022/01/07 00:06:19;;;;;;;10.55;4.78;;;3.80;99.90;;;;;;5089194;28;20076;-71
2022/01/07 00:08:46;;;;;;;12.70;4.60;;;3.80;99.90;;;;;;5071550;28;20056;-70
2022/01/07 00:11:13;;;;;;;16.85;4.40;;;3.80;99.90;;;;;;5089088;28;20118;-69
2022/01/07 00:13:40;;;;;;;12.27;4.13;;;3.80;99.90;;;;;;5071002;28;20044;-70
2022/01/07 00:16:07;;;;;;;12.88;4.68;;;3.80;99.90;;;;;;5072171;28;20079;-70
2022/01/07 00:18:35;;;;;;;10.55;4.10;;;3.80;99.90;;;;;;5071895;28;20408;-71
2022/01/07 00:21:02;;;;;;;9.77;4.50;;;3.70;99.90;;;;;;5071448;28;20060;-71
2022/01/07 00:23:29;;;;;;;13.05;4.32;;;3.70;99.90;;;;;;5071433;28;20048;-70
2022/01/07 00:25:56;;;;;;;8.55;3.65;;;3.60;99.90;;;;;;5071915;28;20052;-70
2022/01/07 00:28:23;;;;;;;11.20;4.72;;;3.60;99.90;;;;;;5071182;28;20052;-71
2022/01/07 00:30:49;;;;;;;11.80;4.68;;;3.50;99.90;;;;;;5072454;28;20094;-70
2022/01/07 00:33:17;;;;;;;18.17;5.05;;;3.50;99.90;;;;;;5071687;28;20158;-71
2022/01/07 00:35:46;;;;;;;11.32;4.47;;;3.40;99.90;;;;;;5087547;28;20076;-71
2022/01/07 00:38:13;;;;;;;12.10;5.35;;;3.40;99.90;;;;;;5071522;28;20067;-71
2022/01/07 00:40:40;;;;;;;14.43;5.50;;;3.40;99.90;;;;;;5071629;28;20056;-71
2022/01/07 00:43:07;;;;;;;9.50;5.05;;;3.20;99.90;;;;;;5087547;28;20041;-72
2022/01/07 00:45:35;;;;;;;11.18;5.35;;;3.20;99.90;;;;;;5071911;28;20443;-71
2022/01/07 00:48:02;;;;;;;12.50;4.90;;;3.10;99.90;;;;;;5071728;28;20052;-70
2022/01/07 00:50:31;;;;;;;8.52;5.30;;;3.00;99.90;;;;;;5087668;28;20048;-71
2022/01/07 00:53:00;;;;;;;14.77;5.60;;;3.00;99.90;;;;;;5088228;28;20500;-70
2022/01/07 00:55:27;;;;;;;10.80;5.90;;;2.90;99.90;;;;;;5071903;28;20044;-70
2022/01/07 00:57:55;;;;;;;14.82;5.68;;;2.90;99.90;;;;;;5070940;28;20080;-70
2022/01/07 01:00:24;;;;;;;14.70;5.45;;;2.90;99.90;;;;;;5071075;28;20098;-70
2022/01/07 01:02:51;;;;;;;16.15;5.30;;;2.80;99.90;;;;;;5070855;28;20075;-71
2022/01/07 01:05:19;;;;;;;13.07;5.93;;;2.70;99.90;;;;;;5071986;28;20044;-70
2022/01/07 01:07:46;;;;;;;13.25;6.03;;;2.70;99.90;;;;;;5071610;28;20052;-70
2022/01/07 01:10:16;;;;;;;11.98;5.93;;;2.70;99.90;;;;;;5071311;28;20101;-70
2022/01/07 01:12:44;;;;;;;19.17;6.60;;;2.60;99.90;;;;;;5071062;28;20052;-70
2022/01/07 01:15:16;;;;;;;14.40;8.48;;;2.60;99.90;;;;;;5071503;28;20424;-70
2022/01/07 01:17:43;;;;;;;12.85;6.20;;;2.60;99.90;;;;;;5070798;28;20052;-70
2022/01/07 01:20:11;;;;;;;17.80;7.05;;;2.60;99.90;;;;;;5071590;28;20052;-69
2022/01/07 01:22:39;;;;;;;16.38;5.95;;;2.50;99.90;;;;;;5071202;28;20098;-69
2022/01/07 01:25:07;;;;;;;11.93;6.20;;;2.50;99.90;;;;;;5070853;28;20052;-69
2022/01/07 01:27:35;;;;;;;14.43;6.07;;;2.50;99.90;;;;;;5071549;28;20088;-69
2022/01/07 01:30:05;;;;;;;13.57;5.43;;;2.50;99.90;;;;;;5071061;28;20117;-71
2022/01/07 01:32:32;;;;;;;12.23;5.95;;;2.50;99.90;;;;;;5070751;28;20053;-69
2022/01/07 01:34:59;;;;;;;16.05;6.57;;;2.50;99.90;;;;;;5088395;28;20044;-71
2022/01/07 01:37:25;;;;;;;14.20;6.22;;;2.50;99.90;;;;;;5072807;28;20052;-70
2022/01/07 01:39:52;;;;;;;15.13;6.25;;;2.40;99.90;;;;;;5074434;28;20504;-70
2022/01/07 01:42:19;;;;;;;11.43;6.15;;;2.40;99.90;;;;;;5074751;28;20052;-70
2022/01/07 01:44:47;;;;;;;14.45;6.95;;;2.40;99.90;;;;;;5074527;28;20488;-70
2022/01/07 01:47:14;;;;;;;15.85;6.07;;;2.30;99.90;;;;;;5074143;28;20114;-69
2022/01/07 01:49:41;;;;;;;15.55;5.82;;;2.30;99.90;;;;;;5091914;28;20094;-69
2022/01/07 01:52:08;;;;;;;12.98;6.15;;;2.30;99.90;;;;;;5074429;28;20048;-69
2022/01/07 01:54:36;;;;;;;16.60;6.53;;;2.30;99.90;;;;;;5074326;28;20053;-69
2022/01/07 01:57:03;;;;;;;13.27;6.47;;;2.30;99.90;;;;;;5091338;28;20488;-69
2022/01/07 01:59:32;;;;;;;12.32;7.18;;;2.30;99.90;;;;;;5074003;28;20047;-69
2022/01/07 02:02:00;;;;;;;15.75;6.70;;;2.30;99.90;;;;;;5074623;28;20045;-70
2022/01/07 02:04:28;;;;;;;14.15;6.32;;;2.30;99.90;;;;;;5074684;28;20488;-70
2022/01/07 02:06:55;;;;;;;16.40;8.02;;;2.30;99.90;;;;;;5073972;28;20182;-70
2022/01/07 02:09:24;;;;;;;11.02;6.15;;;2.30;99.90;;;;;;5074579;28;20052;-70
2022/01/07 02:11:51;;;;;;;12.80;6.80;;;2.30;99.90;;;;;;5074547;28;20059;-70
2022/01/07 02:14:18;;;;;;;15.88;6.75;;;2.30;99.90;;;;;;5073452;28;20044;-70
2022/01/07 02:16:45;;;;;;;14.40;7.00;;;2.30;99.90;;;;;;5074634;28;20052;-69
2022/01/07 02:19:13;;;;;;;10.00;6.47;;;2.30;99.90;;;;;;5073885;28;20114;-69
2022/01/07 02:21:42;;;;;;;13.07;7.97;;;2.30;99.90;;;;;;5073612;28;20099;-69
2022/01/07 02:24:08;;;;;;;10.98;7.22;;;2.30;99.90;;;;;;5073757;28;20052;-70
2022/01/07 02:26:36;;;;;;;9.38;6.90;;;2.30;99.90;;;;;;5074311;28;20052;-70
2022/01/07 02:29:05;;;;;;;15.48;7.95;;;2.30;99.90;;;;;;5073335;28;20048;-70
2022/01/07 02:31:32;;;;;;;12.68;7.00;;;2.30;99.90;;;;;;5074106;28;20052;-70
2022/01/07 02:33:59;;;;;;;13.80;6.60;;;2.30;99.90;;;;;;5073956;28;20036;-70
2022/01/07 02:36:26;;;;;;;12.88;7.03;;;2.30;99.90;;;;;;5073502;28;20056;-70
2022/01/07 02:38:54;;;;;;;10.70;7.20;;;2.30;99.90;;;;;;5073770;28;20063;-70
2022/01/07 02:41:21;;;;;;;11.43;7.65;;;2.30;99.90;;;;;;5073335;28;20454;-69
2022/01/07 02:43:48;;;;;;;10.93;7.03;;;2.30;99.90;;;;;;5073402;28;20492;-70
2022/01/07 02:46:14;;;;;;;12.82;7.32;;;2.30;99.90;;;;;;5073699;28;20565;-70
2022/01/07 02:48:41;;;;;;;12.93;8.07;;;2.30;99.90;;;;;;5071824;28;20082;-70
2022/01/07 02:51:08;;;;;;;12.25;7.15;;;2.40;99.90;;;;;;5090433;28;20121;-70
2022/01/07 02:53:35;;;;;;;11.63;6.90;;;2.30;99.90;;;;;;5073570;28;20108;-70
2022/01/07 02:56:04;;;;;;;11.55;7.43;;;2.40;99.90;;;;;;5072901;28;20427;-68
2022/01/07 02:58:30;;;;;;;11.48;6.95;;;2.40;99.90;;;;;;5073162;28;20064;-70
2022/01/07 03:00:57;;;;;;;12.57;7.35;;;2.30;99.90;;;;;;5073136;28;20048;-69
2022/01/07 03:03:24;;;;;;;11.38;6.93;;;2.40;99.90;;;;;;5073014;28;20474;-69
2022/01/07 03:05:51;;;;;;;16.77;7.57;;;2.40;99.90;;;;;;5090076;28;20040;-70
2022/01/07 03:08:18;;;;;;;12.57;7.30;;;2.30;99.90;;;;;;5090451;28;20070;-70
2022/01/07 03:10:45;;;;;;;12.35;7.47;;;2.30;99.90;;;;;;5072733;28;20056;-70
2022/01/07 03:13:13;;;;;;;10.63;7.30;;;2.30;99.90;;;;;;5073173;28;20106;-69
2022/01/07 03:15:40;;;;;;;12.93;7.15;;;2.30;99.90;;;;;;5072984;28;20144;-70
2022/01/07 03:18:09;;;;;;;10.95;6.90;;;2.30;99.90;;;;;;5089010;28;20106;-70
2022/01/07 03:20:38;;;;;;;11.02;7.80;;;2.30;99.90;;;;;;5072863;28;20056;-70
2022/01/07 03:23:07;;;;;;;12.57;7.00;;;2.30;99.90;;;;;;5089672;28;20052;-70
2022/01/07 03:25:34;;;;;;;10.40;7.50;;;2.30;99.90;;;;;;5072160;28;20106;-70
2022/01/07 03:28:01;;;;;;;12.82;7.22;;;2.30;99.90;;;;;;5072745;28;20056;-70
2022/01/07 03:30:29;;;;;;;13.35;7.18;;;2.40;99.90;;;;;;5072092;28;20353;-70
2022/01/07 03:32:56;;;;;;;12.93;7.35;;;2.30;99.90;;;;;;5072650;28;20052;-69
2022/01/07 03:35:23;;;;;;;12.98;8.15;;;2.30;99.90;;;;;;5072634;28;20094;-69
2022/01/07 03:37:51;;;;;;;15.07;7.47;;;2.30;99.90;;;;;;5073692;28;20458;-70
2022/01/07 03:40:20;;;;;;;13.45;7.85;;;2.40;99.90;;;;;;5072770;28;20045;-70
2022/01/07 03:42:47;;;;;;;10.25;7.10;;;2.40;99.90;;;;;;5072495;28;20485;-70
2022/01/07 03:45:15;;;;;;;13.18;8.70;;;2.40;99.90;;;;;;5072120;28;20084;-70
2022/01/07 03:47:43;;;;;;;13.90;7.85;;;2.40;99.90;;;;;;5072693;28;20084;-69
2022/01/07 03:50:13;;;;;;;13.18;7.80;;;2.40;99.90;;;;;;5072420;28;20075;-69
2022/01/07 03:52:40;;;;;;;15.37;7.87;;;2.40;99.90;;;;;;5071695;28;20056;-70
2022/01/07 03:55:10;;;;;;;13.15;8.93;;;2.40;99.90;;;;;;5072399;28;20041;-70
2022/01/07 03:57:37;;;;;;;16.37;8.20;;;2.40;99.90;;;;;;5072069;28;20048;-71
2022/01/07 04:00:05;;;;;;;10.70;8.10;;;2.50;99.90;;;;;;5071235;28;20497;-69
2022/01/07 04:02:32;;;;;;;15.30;8.88;;;2.50;99.90;;;;;;5072454;28;20084;-69
2022/01/07 04:05:00;;;;;;;16.92;8.73;;;2.50;99.90;;;;;;5088959;28;20090;-69
2022/01/07 04:07:30;;;;;;;13.85;9.60;;;2.50;99.90;;;;;;5088954;28;20064;-70
2022/01/07 04:09:57;;;;;;;11.65;8.30;;;2.50;99.90;;;;;;5072408;28;20048;-70
2022/01/07 04:12:24;;;;;;;12.60;9.10;;;2.50;99.90;;;;;;5089306;28;20056;-70
2022/01/07 04:15:01;;;;;;;14.18;8.48;;;2.50;99.90;;;;;;5072435;28;20041;-71
2022/01/07 04:17:28;;;;;;;11.52;8.00;;;2.50;99.90;;;;;;5072016;28;20048;-70
2022/01/07 04:19:55;;;;;;;13.13;8.23;;;2.40;99.90;;;;;;5071740;28;20060;-70
2022/01/07 04:22:23;;;;;;;13.30;7.70;;;2.50;99.90;;;;;;5072024;28;20098;-70
2022/01/07 04:24:50;;;;;;;11.85;8.00;;;2.50;99.90;;;;;;5071539;28;20052;-70
2022/01/07 04:27:17;;;;;;;10.93;7.93;;;2.50;99.90;;;;;;5071464;28;20495;-69
2022/01/07 04:29:44;;;;;;;10.77;7.75;;;2.50;99.90;;;;;;5072239;28;20052;-69
2022/01/07 04:32:11;;;;;;;11.68;8.07;;;2.50;99.90;;;;;;5089028;28;20055;-69
2022/01/07 04:34:38;;;;;;;12.50;8.13;;;2.50;99.90;;;;;;5071379;28;20450;-69
2022/01/07 04:37:05;;;;;;;11.15;7.70;;;2.50;99.90;;;;;;5071887;28;20484;-69
2022/01/07 04:39:33;;;;;;;10.00;7.13;;;2.50;99.90;;;;;;5071787;28;20110;-69
2022/01/07 04:42:00;;;;;;;12.52;7.97;;;2.50;99.90;;;;;;5071347;28;20133;-69
2022/01/07 04:44:27;;;;;;;12.98;8.43;;;2.60;99.90;;;;;;5071484;28;20515;-70
2022/01/07 04:46:54;;;;;;;13.80;8.45;;;2.60;99.90;;;;;;5088695;28;20052;-69
2022/01/07 04:49:21;;;;;;;10.45;8.05;;;2.60;99.90;;;;;;5071338;28;20113;-69
2022/01/07 04:51:48;;;;;;;14.18;8.70;;;2.60;99.90;;;;;;5071553;28;20090;-69
2022/01/07 04:54:15;;;;;;;10.65;7.97;;;2.60;99.90;;;;;;5088474;28;20048;-68
2022/01/07 04:56:44;;;;;;;13.68;8.77;;;2.60;99.90;;;;;;5083934;28;20061;-70
2022/01/07 04:59:10;;;;;;;16.40;9.18;;;2.60;99.90;;;;;;5068821;28;20401;-69
2022/01/07 05:01:37;;;;;;;14.02;8.77;;;2.60;99.90;;;;;;5051547;28;20114;-68
2022/01/07 05:04:04;;;;;;;12.05;8.30;;;2.60;99.90;;;;;;5050971;28;20053;-69
2022/01/07 05:06:47;;;;;;;14.55;8.75;;;2.60;99.90;;;;;;5052788;28;20049;-69
2022/01/07 05:09:16;;;;;;;14.07;7.80;;;1.90;99.90;;;;;;5051332;28;20546;-69
2022/01/07 05:11:44;;;;;;;14.85;9.13;;;2.70;99.90;;;;;;5051915;28;20146;-69
2022/01/07 05:14:11;;;;;;;12.00;7.93;;;2.70;99.90;;;;;;5055508;28;20548;-69
2022/01/07 05:16:38;;;;;;;11.73;7.50;;;2.70;99.90;;;;;;5054680;28;20115;-70
2022/01/07 05:19:05;;;;;;;14.27;9.07;;;2.80;99.90;;;;;;5055358;28;20527;-69
2022/01/07 05:21:33;;;;;;;13.63;7.82;;;2.80;99.90;;;;;;5055558;28;20107;-70
2022/01/07 05:24:00;;;;;;;11.05;7.80;;;2.80;99.90;;;;;;5054348;28;20053;-70
2022/01/07 05:26:27;;;;;;;9.77;7.25;;;2.80;99.90;;;;;;5059699;28;20068;-70
2022/01/07 05:28:55;;;;;;;11.15;7.93;;;2.90;99.90;;;;;;5075498;28;20094;-69
2022/01/07 05:31:23;;;;;;;12.55;8.07;;;2.90;99.90;;;;;;5091592;28;20102;-68
2022/01/07 05:33:50;;;;;;;12.13;7.82;;;2.90;99.90;;;;;;5089964;28;20060;-67
2022/01/07 05:36:17;;;;;;;10.60;7.85;;;2.90;99.90;;;;;;5075817;28;20182;-67
2022/01/07 05:38:44;;;;;;;10.68;7.05;;;2.90;99.90;;;;;;5063676;28;20084;-69
2022/01/07 05:41:11;;;;;;;13.68;7.93;;;2.90;99.90;;;;;;5077509;28;20048;-67
2022/01/07 05:43:38;;;;;;;13.63;8.15;;;2.90;99.90;;;;;;5074805;28;20114;-68
2022/01/07 05:46:08;;;;;;;12.57;7.78;;;2.90;99.90;;;;;;5066485;28;20049;-68
2022/01/07 05:48:34;;;;;;;13.37;7.57;;;3.00;99.90;;;;;;5067266;28;20426;-68
2022/01/07 05:51:01;;;;;;;11.27;7.85;;;3.00;99.90;;;;;;5068765;28;20107;-68
2022/01/07 05:53:28;;;;;;;9.70;7.78;;;3.00;99.90;;;;;;5071163;28;20048;-67
2022/01/07 05:55:55;;;;;;;12.93;8.02;;;3.00;99.90;;;;;;5073915;28;20049;-68
2022/01/07 05:58:22;;;;;;;13.75;7.03;;;3.10;99.90;;;;;;5066141;28;20110;-69
2022/01/07 06:00:49;;;;;;;15.10;7.90;;;3.00;99.90;;;;;;5067745;28;20556;-69
2022/01/07 06:03:17;;;;;;;12.05;7.40;;;3.00;99.90;;;;;;5070137;28;20056;-69
2022/01/07 06:05:44;;;;;;;13.43;7.65;;;3.00;99.90;;;;;;5081987;28;20049;-67
2022/01/07 06:08:11;;;;;;;11.50;8.30;;;3.00;99.90;;;;;;5068285;28;20050;-68
2022/01/07 06:10:38;;;;;;;15.23;7.97;;;3.00;99.90;;;;;;5072924;28;20056;-68
2022/01/07 06:13:04;;;;;;;14.10;8.45;;;3.10;99.90;;;;;;5064754;28;20495;-68
2022/01/07 06:15:31;;;;;;;13.13;8.07;;;3.10;99.90;;;;;;5065342;28;20049;-68
2022/01/07 06:17:59;;;;;;;13.10;7.82;;;3.10;99.90;;;;;;5066719;28;20048;-68
2022/01/07 06:20:27;;;;;;;12.15;8.40;;;3.10;99.90;;;;;;5069963;28;20052;-70
2022/01/07 06:22:54;;;;;;;14.95;7.82;;;3.10;99.90;;;;;;5065185;28;20102;-69
2022/01/07 06:25:21;;;;;;;14.63;8.02;;;3.10;99.90;;;;;;5063813;28;20488;-69
2022/01/07 06:27:48;;;;;;;12.50;7.30;;;3.10;99.90;;;;;;5064441;28;20052;-70
2022/01/07 06:30:15;;;;;;;10.73;7.15;;;3.10;99.90;;;;;;5064926;28;20120;-70
2022/01/07 06:32:43;;;;;;;11.57;7.57;;;3.10;99.90;;;;;;5071220;28;20049;-69
2022/01/07 06:35:10;;;;;;;12.27;7.55;;;3.10;99.90;;;;;;5074569;28;20055;-69
2022/01/07 06:37:39;;;;;;;13.35;8.10;;;3.10;99.90;;;;;;5068120;28;20222;-68
2022/01/07 06:40:07;;;;;;;12.65;7.78;;;3.30;99.90;;;;;;5064897;28;20107;-68
2022/01/07 06:42:34;;;;;;;13.15;8.45;;;3.10;99.90;;;;;;5067376;28;20044;-68
2022/01/07 06:45:01;;;;;;;10.73;7.45;;;3.10;99.90;;;;;;5062813;28;20476;-68
2022/01/07 06:47:28;;;;;;;8.95;6.35;;;3.10;99.90;;;;;;5064229;28;20078;-68
2022/01/07 06:49:55;;;;;;;12.02;7.70;;;3.10;99.90;;;;;;5060495;28;20048;-68
2022/01/07 06:52:22;;;;;;;10.25;7.38;;;3.20;99.90;;;;;;5056172;28;20044;-68
2022/01/07 06:54:50;;;;;;;9.45;7.80;;;3.10;99.90;;;;;;5061108;28;20404;-68
2022/01/07 06:57:17;;;;;;;10.68;7.43;;;3.20;99.90;;;;;;5075419;28;20488;-68
2022/01/07 06:59:45;;;;;;;11.70;7.53;;;3.20;99.90;;;;;;5059192;28;20436;-68
2022/01/07 07:02:12;;;;;;;10.63;7.93;;;3.20;99.90;;;;;;5060736;28;20045;-68
2022/01/07 07:04:39;;;;;;;11.98;7.70;;;3.20;99.90;;;;;;5055056;28;20049;-67
2022/01/07 07:07:06;;;;;;;10.85;7.60;;;3.20;99.90;;;;;;5057594;28;20370;-67
2022/01/07 07:09:33;;;;;;;12.73;7.88;;;3.20;99.90;;;;;;5060986;28;20044;-67
2022/01/07 07:12:01;;;;;;;10.50;8.05;;;3.20;99.90;;;;;;5063604;28;20487;-68
2022/01/07 07:14:28;;;;;;;14.02;8.05;;;3.30;99.90;;;;;;5062811;28;20044;-68
2022/01/07 07:16:56;;;;;;;12.25;8.18;;;3.30;99.90;;;;;;5060982;28;20142;-68
2022/01/07 07:19:23;;;;;;;14.07;7.68;;;3.30;99.90;;;;;;5052922;28;20053;-68
2022/01/07 07:21:50;;;;;;;12.40;8.23;;;3.30;99.90;;;;;;5054319;28;20533;-68
2022/01/07 07:24:17;;;;;;;11.48;7.78;;;3.30;99.90;;;;;;5053939;28;20048;-67
2022/01/07 07:26:44;;;;;;;15.65;8.25;;;3.50;99.90;;;;;;5040838;28;20044;-67
2022/01/07 07:29:12;;;;;;;13.73;9.02;;;3.40;99.90;;;;;;5071445;28;20052;-68
2022/01/07 07:31:41;;;;;;;10.48;7.85;;;3.40;99.90;;;;;;5069926;28;20488;-68
2022/01/07 07:34:31;;;;;;;14.07;9.00;;;3.50;99.90;;;;;;5066852;28;20118;-68
2022/01/07 07:36:57;;;;;;;13.38;9.25;;;4.20;99.90;;;;;;5066745;28;20045;-68
2022/01/07 07:39:25;;;;;;;14.63;8.85;;;3.50;99.90;;;;;;5071228;28;20557;-68
2022/01/07 07:41:51;;;;;;;16.13;10.20;;;3.50;99.90;;;;;;5071623;28;20493;-68
2022/01/07 07:44:20;;;;;;;16.67;9.45;;;3.60;99.90;;;;;;5069987;28;20543;-69
2022/01/07 07:46:47;;;;;;;17.50;10.30;;;3.70;99.90;;;;;;5071137;28;20044;-69
2022/01/07 07:49:14;;;;;;;15.20;10.27;;;3.70;99.90;;;;;;5070419;28;20090;-69
2022/01/07 07:51:41;;;;;;;16.63;10.13;;;3.70;99.90;;;;;;5070662;28;20381;-69
2022/01/07 07:54:09;;;;;;;17.52;10.38;;;3.70;99.90;;;;;;5051003;28;20084;-69
2022/01/07 07:56:36;;;;;;;15.50;10.05;;;3.70;99.90;;;;;;5066339;28;20080;-68
2022/01/07 07:59:03;;;;;;;17.35;10.38;;;3.70;99.90;;;;;;5056390;28;20130;-69
2022/01/07 08:01:31;;;;;;;17.00;10.40;;;3.70;99.90;;;;;;5067268;28;20102;-68
2022/01/07 08:03:58;;;;;;;16.63;10.35;;;3.70;99.90;;;;;;5057443;28;20143;-68
2022/01/07 08:06:25;;;;;;;15.65;11.38;;;3.70;99.90;;;;;;5063294;28;20499;-68
2022/01/07 08:08:52;;;;;;;21.73;11.07;;;3.80;99.90;;;;;;5070018;28;20106;-69
2022/01/07 08:11:19;;;;;;;18.30;11.60;;;3.80;99.90;;;;;;5051124;28;20060;-69
2022/01/07 08:16:43;;;;;;;18.17;10.55;;;3.90;99.90;;;;;;5012222;28;20042;-69
2022/01/07 08:19:10;;;;;;;16.65;10.68;;;3.90;99.90;;;;;;5054992;28;20048;-70
2022/01/07 08:21:37;;;;;;;20.55;11.52;;;3.90;99.90;;;;;;5070470;28;20094;-68
2022/01/07 08:24:04;;;;;;;18.27;11.73;;;4.00;99.90;;;;;;5059291;28;20049;-69
2022/01/07 08:26:31;;;;;;;18.55;12.02;;;4.00;99.90;;;;;;5069501;28;20052;-68
2022/01/07 08:29:02;;;;;;;19.05;11.73;;;4.00;99.90;;;;;;5070392;28;20088;-69
2022/01/07 08:36:55;;;;;;;20.63;11.60;;;4.10;99.90;;;;;;5069407;28;20098;-69
2022/01/07 08:39:24;;;;;;;21.63;11.43;;;4.10;99.90;;;;;;5054740;28;20076;-68
2022/01/07 08:41:52;;;;;;;19.30;11.85;;;4.10;99.90;;;;;;5049811;28;20056;-69
2022/01/07 08:44:19;;;;;;;17.08;11.07;;;4.20;99.90;;;;;;5049332;28;20133;-69
2022/01/07 08:46:46;;;;;;;25.90;12.40;;;4.20;99.90;;;;;;5051782;28;20437;-69
2022/01/07 08:49:15;;;;;;;21.30;11.60;;;4.20;99.90;;;;;;5057217;28;20106;-69
2022/01/07 08:51:41;;;;;;;21.33;12.13;;;4.30;99.90;;;;;;5068152;28;20450;-69
2022/01/07 08:54:08;;;;;;;19.45;12.13;;;4.30;99.90;;;;;;5069979;28;20122;-69
2022/01/07 08:56:37;;;;;;;17.50;11.93;;;4.40;99.90;;;;;;5069769;28;20090;-68
2022/01/07 08:59:04;;;;;;;20.25;12.25;;;4.40;99.90;;;;;;5059453;28;20092;-68
2022/01/07 09:01:30;;;;;;;15.63;11.10;;;4.40;99.90;;;;;;5049377;28;20052;-69
2022/01/07 09:03:58;;;;;;;16.77;11.40;;;4.40;99.90;;;;;;5050327;28;20060;-68
2022/01/07 09:06:26;;;;;;;18.98;11.10;;;4.50;99.90;;;;;;5049779;28;20045;-69
2022/01/07 09:08:53;;;;;;;27.10;12.45;;;4.50;99.90;;;;;;5049586;28;20570;-68
2022/01/07 09:11:20;;;;;;;24.55;13.05;;;4.50;99.90;;;;;;5049145;28;20122;-69
2022/01/07 09:13:48;;;;;;;16.77;10.80;;;4.50;99.90;;;;;;5050332;28;20485;-68
2022/01/07 09:16:15;;;;;;;18.85;12.57;;;4.50;99.90;;;;;;5049018;28;20091;-69
2022/01/07 09:18:42;;;;;;;16.63;11.75;;;4.60;99.90;;;;;;5068855;28;20480;-69
2022/01/07 09:21:09;;;;;;;19.17;12.88;;;4.60;99.90;;;;;;5069540;28;20060;-69
2022/01/07 09:23:40;;;;;;;22.73;12.85;;;4.70;99.90;;;;;;5069310;28;20102;-68
2022/01/07 09:26:07;;;;;;;19.73;11.90;;;4.70;99.90;;;;;;5069919;28;20084;-69
2022/01/07 09:28:34;;;;;;;21.75;13.02;;;4.70;99.90;;;;;;5070046;28;20537;-68
2022/01/07 09:31:01;;;;;;;20.00;12.48;;;4.70;99.90;;;;;;5068744;28;20500;-68
2022/01/07 09:33:28;;;;;;;23.33;12.52;;;4.70;99.90;;;;;;5070227;28;20060;-67
2022/01/07 09:35:54;;;;;;;19.42;12.50;;;4.70;99.90;;;;;;5067245;28;20055;-68
2022/01/07 09:38:22;;;;;;;21.00;12.60;;;4.80;99.90;;;;;;5050675;28;20044;-69
2022/01/07 09:40:51;;;;;;;23.55;12.40;;;4.80;99.90;;;;;;5058243;28;20127;-69
2022/01/07 09:43:18;;;;;;;19.08;12.65;;;4.90;99.90;;;;;;5069587;28;20511;-68
2022/01/07 09:45:45;;;;;;;24.60;12.85;;;5.20;99.90;;;;;;5055647;28;20439;-69
2022/01/07 09:48:12;;;;;;;21.42;11.85;;;6.00;99.90;;;;;;5067063;28;20052;-69
2022/01/07 09:50:39;;;;;;;18.73;11.20;;;6.80;99.90;;;;;;5069658;28;20616;-67
2022/01/07 09:53:07;;;;;;;21.40;11.35;;;6.90;99.90;;;;;;5069875;28;20557;-68
2022/01/07 09:55:34;;;;;;;17.52;10.23;;;6.60;99.90;;;;;;5067187;28;20131;-68
2022/01/07 09:58:04;;;;;;;18.95;10.32;;;6.30;99.90;;;;;;5061683;28;20573;-67
2022/01/07 10:00:37;;;;;;;18.10;10.95;;;6.00;99.90;;;;;;5074281;28;20563;-68
2022/01/07 10:03:07;;;;;;;20.23;9.98;;;5.70;99.90;;;;;;5055154;28;20053;-68
2022/01/07 10:05:41;;;;;;;17.98;9.48;;;5.60;99.90;;;;;;5052604;28;20049;-68
2022/01/07 10:08:23;;;;;;;16.48;9.35;;;5.40;99.90;;;;;;5058887;28;20057;-68
2022/01/07 10:11:11;;;;;;;15.95;8.27;;;5.30;99.90;;;;;;5068940;28;20044;-69
2022/01/07 10:13:41;;;;;;;13.30;8.32;;;5.20;99.90;;;;;;5077095;28;20033;-68
2022/01/07 10:16:16;;;;;;;13.20;7.85;;;5.20;99.90;;;;;;5072127;28;20454;-69
2022/01/07 10:18:43;;;;;;;10.13;5.55;;;5.10;99.90;;;;;;5070418;28;20047;-68
2022/01/07 10:21:11;;;;;;;5.22;3.33;;;5.10;99.90;;;;;;5072071;28;20475;-69
2022/01/07 10:23:39;;;;;;;5.03;2.42;;;5.10;99.90;;;;;;5073307;28;20102;-69
2022/01/07 10:26:13;;;;;;;6.00;2.88;;;5.10;99.90;;;;;;5071549;28;20052;-69
2022/01/07 10:28:42;;;;;;;4.75;2.40;;;5.10;99.90;;;;;;5071869;28;20501;-69
2022/01/07 10:31:10;;;;;;;5.75;2.80;;;5.10;99.90;;;;;;5071399;28;20052;-68
2022/01/07 10:33:38;;;;;;;8.10;3.30;;;5.10;99.90;;;;;;5071824;28;20094;-68
2022/01/07 10:36:17;;;;;;;5.57;2.67;;;5.30;99.90;;;;;;5072006;28;20118;-68
2022/01/07 10:38:48;;;;;;;5.57;2.92;;;6.00;99.90;;;;;;5072619;28;20579;-69
2022/01/07 10:41:15;;;;;;;3.97;2.40;;;7.10;99.90;;;;;;5066687;28;20405;-68
2022/01/07 10:43:44;;;;;;;4.22;2.60;;;8.00;99.90;;;;;;5072335;28;20064;-69
2022/01/07 10:46:16;;;;;;;4.90;2.17;;;8.30;99.90;;;;;;5058187;28;20110;-69
2022/01/07 10:48:46;;;;;;;5.10;1.90;;;8.10;99.90;;;;;;5070101;28;20451;-68
2022/01/07 10:51:15;;;;;;;7.53;2.30;;;7.50;99.90;;;;;;5072249;28;20052;-68
2022/01/07 10:53:49;;;;;;;3.63;1.95;;;6.90;99.90;;;;;;5071461;28;20117;-68
2022/01/07 10:56:16;;;;;;;3.33;2.10;;;6.40;99.90;;;;;;5071987;28;20496;-69
2022/01/07 10:59:00;;;;;;;5.13;2.00;;;6.30;99.90;;;;;;5064846;28;20404;-69
2022/01/07 11:01:34;;;;;;;4.47;1.63;;;7.00;99.90;;;;;;5069740;28;20048;-69
2022/01/07 11:04:04;;;;;;;4.68;1.40;;;7.50;99.90;;;;;;5069918;28;20057;-69
2022/01/07 11:06:32;;;;;;;4.90;1.70;;;7.40;99.90;;;;;;5071627;28;20040;-68
2022/01/07 11:09:00;;;;;;;4.95;1.60;;;7.20;99.90;;;;;;5072469;28;20103;-68
2022/01/07 11:11:29;;;;;;;6.63;1.98;;;7.10;99.90;;;;;;5070985;28;20049;-69
2022/01/07 11:14:05;;;;;;;5.05;1.65;;;7.00;99.90;;;;;;5070538;28;20052;-68
2022/01/07 11:16:32;;;;;;;4.20;1.45;;;6.90;99.90;;;;;;5089890;28;20045;-68
2022/01/07 11:19:00;;;;;;;5.38;2.22;;;6.90;99.90;;;;;;5068752;28;20131;-68
2022/01/07 11:21:27;;;;;;;8.30;1.90;;;7.00;99.90;;;;;;5085854;28;20056;-69
2022/01/07 11:23:54;;;;;;;3.55;1.80;;;6.90;99.90;;;;;;5071090;28;20133;-69
2022/01/07 11:26:20;;;;;;;4.65;2.55;;;7.30;99.90;;;;;;5071222;28;20052;-69
2022/01/07 11:28:59;;;;;;;4.40;2.20;;;8.60;99.90;;;;;;5057336;28;20448;-68
2022/01/07 11:31:26;;;;;;;5.78;2.65;;;10.00;99.90;;;;;;5051471;28;20106;-69
2022/01/07 11:34:27;;;;;;;6.22;3.00;;;11.10;99.90;;;;;;5051709;28;20052;-69
2022/01/07 11:36:54;;;;;;;6.13;3.10;;;12.20;99.90;;;;;;5067739;28;20676;-70
2022/01/07 11:39:24;;;;;;;6.35;3.25;;;13.20;99.90;;;;;;5070618;28;20087;-69
2022/01/07 11:41:55;;;;;;;5.65;3.55;;;13.70;99.90;;;;;;5071507;28;20392;-70
2022/01/07 11:44:26;;;;;;;5.20;3.28;;;13.50;99.90;;;;;;5069204;28;20055;-70
2022/01/07 11:47:23;;;;;;;7.50;3.40;;;14.50;99.90;;;;;;5070922;28;20048;-70
2022/01/07 11:50:03;;;;;;;5.00;3.30;;;14.10;99.90;;;;;;5070593;28;20049;-70
2022/01/07 11:52:35;;;;;;;8.50;4.10;;;14.50;99.90;;;;;;5070303;28;20052;-70
2022/01/07 11:55:20;;;;;;;5.03;3.47;;;14.40;99.90;;;;;;5072408;28;20458;-69
2022/01/07 11:57:51;;;;;;;10.43;3.80;;;14.00;99.90;;;;;;5063586;28;20110;-69
2022/01/07 12:00:51;;;;;;;8.00;3.90;;;14.10;99.90;;;;;;5070288;28;20439;-70
2022/01/07 12:03:38;;;;;;;7.72;4.05;;;14.30;99.90;;;;;;5070178;28;20044;-71
2022/01/07 12:06:44;;;;;;;7.00;4.20;;;14.00;99.90;;;;;;5068898;28;20105;-70
2022/01/07 12:09:19;;;;;;;9.02;4.18;;;13.40;99.90;;;;;;5068857;28;20075;-68
2022/01/07 12:11:53;;;;;;;8.95;4.20;;;13.50;99.90;;;;;;5067865;28;20049;-68
2022/01/07 12:14:22;;;;;;;10.60;4.18;;;12.60;99.90;;;;;;5076078;28;20102;-68
2022/01/07 12:16:52;;;;;;;8.38;5.10;;;11.20;99.90;;;;;;5069993;28;20451;-68
2022/01/07 12:20:11;;;;;;;7.43;4.53;;;10.40;99.90;;;;;;5069454;28;20056;-68
2022/01/07 12:22:47;;;;;;;10.00;4.97;;;9.60;99.90;;;;;;5069495;28;20460;-69
2022/01/07 12:25:13;;;;;;;11.32;4.97;;;9.90;99.90;;;;;;5070079;28;20057;-68
2022/01/07 12:27:40;;;;;;;13.40;5.07;;;10.40;99.90;;;;;;5058121;28;20049;-70
2022/01/07 12:30:10;;;;;;;9.75;5.22;;;11.10;99.90;;;;;;5065028;28;20052;-70
2022/01/07 12:32:38;;;;;;;10.85;4.65;;;11.80;99.90;;;;;;5069319;28;20041;-69
2022/01/07 12:35:07;;;;;;;7.35;4.25;;;12.20;99.90;;;;;;5070142;28;20053;-70
2022/01/07 12:37:34;;;;;;;10.10;4.40;;;12.90;99.90;;;;;;5069456;28;20529;-68
2022/01/07 12:40:04;;;;;;;8.98;3.85;;;13.30;99.90;;;;;;5069523;28;20118;-69
2022/01/07 12:42:36;;;;;;;10.55;3.90;;;13.30;99.90;;;;;;5068266;28;20522;-68
2022/01/07 12:45:03;;;;;;;7.57;3.42;;;13.50;99.90;;;;;;5068813;28;20055;-68
2022/01/07 12:47:32;;;;;;;8.00;2.95;;;13.50;99.90;;;;;;5069521;28;20566;-69
2022/01/07 12:50:03;;;;;;;8.88;3.13;;;13.10;99.90;;;;;;5069919;28;20105;-69
2022/01/07 12:52:30;;;;;;;;;;;12.60;99.90;;;;;;5071888;28;20454;-69
2022/01/07 12:54:59;;;;;;;6.22;2.63;;;12.30;99.90;;;;;;5069456;28;20331;-69
2022/01/07 12:57:32;;;;;;;5.28;2.42;;;12.20;99.90;;;;;;5069787;28;20057;-69
2022/01/07 13:00:15;;;;;;;5.13;2.55;;;12.00;99.90;;;;;;5070352;28;20109;-69
2022/01/07 13:02:43;;;;;;;9.98;2.95;;;11.80;99.90;;;;;;5070085;28;20044;-69